sensor_id;sensor_type;location;lat;lon;timestamp;pressure;altitude;pressure_sealevel;temperature;humidity
80568;BME280;69922;45.656;25.586;2023-07-31T00:00:26;94724.50;;;18.78;70.00
80568;BME280;69922;45.656;25.586;2023-07-31T00:01:58;94724.95;;;18.76;69.99
80568;BME280;69922;45.656;25.586;2023-07-31T00:03:04;94724.46;;;18.73;70.33
80568;BME280;69922;45.656;25.586;2023-07-31T00:04:11;94723.67;;;18.72;70.17
80568;BME280;69922;45.656;25.586;2023-07-31T00:05:17;94723.10;;;18.70;70.18
80568;BME280;69922;45.656;25.586;2023-07-31T00:06:23;94722.87;;;18.69;70.21
80568;BME280;69922;45.656;25.586;2023-07-31T00:07:29;94718.50;;;18.67;70.25
80568;BME280;69922;45.656;25.586;2023-07-31T00:08:36;94722.98;;;18.65;70.39
80568;BME280;69922;45.656;25.586;2023-07-31T00:09:42;94723.21;;;18.63;70.72
80568;BME280;69922;45.656;25.586;2023-07-31T00:10:50;94718.38;;;18.61;70.72
80568;BME280;69922;45.656;25.586;2023-07-31T00:11:57;94719.80;;;18.59;70.83
80568;BME280;69922;45.656;25.586;2023-07-31T00:13:03;94720.80;;;18.57;70.90
80568;BME280;69922;45.656;25.586;2023-07-31T00:14:10;94721.90;;;18.56;70.79
80568;BME280;69922;45.656;25.586;2023-07-31T00:15:17;94718.52;;;18.56;71.16
80568;BME280;69922;45.656;25.586;2023-07-31T00:16:24;94719.98;;;18.54;71.00
80568;BME280;69922;45.656;25.586;2023-07-31T00:17:30;94715.39;;;18.54;70.98
80568;BME280;69922;45.656;25.586;2023-07-31T00:18:36;94712.88;;;18.53;71.07
80568;BME280;69922;45.656;25.586;2023-07-31T00:19:43;94713.03;;;18.53;71.25
80568;BME280;69922;45.656;25.586;2023-07-31T00:20:49;94708.77;;;18.54;71.30
80568;BME280;69922;45.656;25.586;2023-07-31T00:21:56;94705.52;;;18.53;71.29
80568;BME280;69922;45.656;25.586;2023-07-31T00:23:01;94706.31;;;18.52;71.66
80568;BME280;69922;45.656;25.586;2023-07-31T00:24:07;94706.23;;;18.51;71.62
80568;BME280;69922;45.656;25.586;2023-07-31T00:25:13;94699.89;;;18.50;71.62
80568;BME280;69922;45.656;25.586;2023-07-31T00:26:19;94698.16;;;18.49;71.72
80568;BME280;69922;45.656;25.586;2023-07-31T00:27:26;94701.63;;;18.48;71.83
80568;BME280;69922;45.656;25.586;2023-07-31T00:28:32;94702.55;;;18.46;71.73
80568;BME280;69922;45.656;25.586;2023-07-31T00:29:39;94707.70;;;18.46;72.03
80568;BME280;69922;45.656;25.586;2023-07-31T00:30:46;94707.36;;;18.45;71.99
80568;BME280;69922;45.656;25.586;2023-07-31T00:31:53;94710.34;;;18.42;72.20
80568;BME280;69922;45.656;25.586;2023-07-31T00:33:00;94714.42;;;18.40;72.21
80568;BME280;69922;45.656;25.586;2023-07-31T00:34:07;94713.33;;;18.39;72.36
80568;BME280;69922;45.656;25.586;2023-07-31T00:35:14;94713.52;;;18.37;72.59
80568;BME280;69922;45.656;25.586;2023-07-31T00:36:20;94711.21;;;18.36;72.54
80568;BME280;69922;45.656;25.586;2023-07-31T00:37:27;94712.95;;;18.35;72.61
80568;BME280;69922;45.656;25.586;2023-07-31T00:38:34;94715.31;;;18.35;72.79
80568;BME280;69922;45.656;25.586;2023-07-31T00:39:40;94714.44;;;18.34;72.79
80568;BME280;69922;45.656;25.586;2023-07-31T00:40:47;94719.09;;;18.33;72.98
80568;BME280;69922;45.656;25.586;2023-07-31T00:41:53;94720.11;;;18.32;73.00
80568;BME280;69922;45.656;25.586;2023-07-31T00:43:00;94720.57;;;18.30;73.22
80568;BME280;69922;45.656;25.586;2023-07-31T00:44:08;94721.04;;;18.28;73.14
80568;BME280;69922;45.656;25.586;2023-07-31T00:45:15;94723.61;;;18.26;73.38
80568;BME280;69922;45.656;25.586;2023-07-31T00:46:21;94723.92;;;18.26;73.20
80568;BME280;69922;45.656;25.586;2023-07-31T00:47:28;94729.06;;;18.26;73.50
80568;BME280;69922;45.656;25.586;2023-07-31T00:48:35;94729.27;;;18.24;73.42
80568;BME280;69922;45.656;25.586;2023-07-31T00:49:43;94728.02;;;18.23;73.37
80568;BME280;69922;45.656;25.586;2023-07-31T00:50:49;94724.06;;;18.23;73.49
80568;BME280;69922;45.656;25.586;2023-07-31T00:51:57;94722.72;;;18.23;73.47
80568;BME280;69922;45.656;25.586;2023-07-31T00:53:03;94723.64;;;18.22;73.39
80568;BME280;69922;45.656;25.586;2023-07-31T00:54:09;94722.93;;;18.20;73.35
80568;BME280;69922;45.656;25.586;2023-07-31T00:55:17;94722.45;;;18.19;73.20
80568;BME280;69922;45.656;25.586;2023-07-31T00:56:25;94725.92;;;18.19;73.40
80568;BME280;69922;45.656;25.586;2023-07-31T00:57:32;94726.96;;;18.21;73.47
80568;BME280;69922;45.656;25.586;2023-07-31T00:58:39;94725.38;;;18.21;73.93
80568;BME280;69922;45.656;25.586;2023-07-31T00:59:47;94725.14;;;18.20;73.72
80568;BME280;69922;45.656;25.586;2023-07-31T01:00:54;94724.41;;;18.18;73.57
80568;BME280;69922;45.656;25.586;2023-07-31T01:02:00;94720.38;;;18.17;73.68
80568;BME280;69922;45.656;25.586;2023-07-31T01:03:06;94720.84;;;18.15;73.67
80568;BME280;69922;45.656;25.586;2023-07-31T01:04:14;94719.89;;;18.14;73.67
80568;BME280;69922;45.656;25.586;2023-07-31T01:05:28;94721.20;;;18.13;73.63
80568;BME280;69922;45.656;25.586;2023-07-31T01:06:40;94719.63;;;18.13;73.60
80568;BME280;69922;45.656;25.586;2023-07-31T01:07:54;94713.17;;;18.14;73.67
80568;BME280;69922;45.656;25.586;2023-07-31T01:09:16;94712.32;;;18.16;73.73
80568;BME280;69922;45.656;25.586;2023-07-31T01:10:29;94716.55;;;18.20;73.71
80568;BME280;69922;45.656;25.586;2023-07-31T01:11:41;94717.66;;;18.22;73.49
80568;BME280;69922;45.656;25.586;2023-07-31T01:12:49;94717.58;;;18.23;73.55
80568;BME280;69922;45.656;25.586;2023-07-31T01:13:56;94713.41;;;18.25;73.49
80568;BME280;69922;45.656;25.586;2023-07-31T01:15:08;94713.75;;;18.27;73.45
80568;BME280;69922;45.656;25.586;2023-07-31T01:16:18;94707.85;;;18.30;73.44
80568;BME280;69922;45.656;25.586;2023-07-31T01:17:25;94706.75;;;18.32;73.38
80568;BME280;69922;45.656;25.586;2023-07-31T01:18:32;94706.74;;;18.30;73.31
80568;BME280;69922;45.656;25.586;2023-07-31T01:19:38;94705.89;;;18.30;73.28
80568;BME280;69922;45.656;25.586;2023-07-31T01:20:46;94704.23;;;18.29;73.30
80568;BME280;69922;45.656;25.586;2023-07-31T01:22:21;94703.68;;;18.30;73.39
80568;BME280;69922;45.656;25.586;2023-07-31T01:24:01;94700.29;;;18.30;73.40
80568;BME280;69922;45.656;25.586;2023-07-31T01:25:30;94704.62;;;18.31;73.32
80568;BME280;69922;45.656;25.586;2023-07-31T01:26:40;94706.13;;;18.31;73.40
80568;BME280;69922;45.656;25.586;2023-07-31T01:27:57;94709.59;;;18.29;73.37
80568;BME280;69922;45.656;25.586;2023-07-31T01:29:14;94713.45;;;18.29;73.34
80568;BME280;69922;45.656;25.586;2023-07-31T01:30:27;94712.59;;;18.28;73.46
80568;BME280;69922;45.656;25.586;2023-07-31T01:31:41;94714.29;;;18.26;73.47
80568;BME280;69922;45.656;25.586;2023-07-31T01:32:51;94714.05;;;18.26;73.75
80568;BME280;69922;45.656;25.586;2023-07-31T01:34:03;94715.96;;;18.27;73.74
80568;BME280;69922;45.656;25.586;2023-07-31T01:35:12;94715.46;;;18.26;73.92
80568;BME280;69922;45.656;25.586;2023-07-31T01:36:18;94715.77;;;18.23;74.11
80568;BME280;69922;45.656;25.586;2023-07-31T01:37:29;94716.86;;;18.21;74.12
80568;BME280;69922;45.656;25.586;2023-07-31T01:38:36;94724.41;;;18.18;74.18
80568;BME280;69922;45.656;25.586;2023-07-31T01:39:42;94723.68;;;18.15;74.17
80568;BME280;69922;45.656;25.586;2023-07-31T01:40:53;94723.96;;;18.12;74.28
80568;BME280;69922;45.656;25.586;2023-07-31T01:41:59;94727.17;;;18.09;74.26
80568;BME280;69922;45.656;25.586;2023-07-31T01:43:06;94725.02;;;18.06;74.66
80568;BME280;69922;45.656;25.586;2023-07-31T01:44:15;94727.74;;;18.02;74.58
80568;BME280;69922;45.656;25.586;2023-07-31T01:45:21;94729.05;;;17.99;74.83
80568;BME280;69922;45.656;25.586;2023-07-31T01:46:28;94731.23;;;17.96;74.94
80568;BME280;69922;45.656;25.586;2023-07-31T01:47:34;94736.27;;;17.92;75.28
80568;BME280;69922;45.656;25.586;2023-07-31T01:48:40;94735.59;;;17.89;75.30
80568;BME280;69922;45.656;25.586;2023-07-31T01:49:47;94736.84;;;17.87;75.44
80568;BME280;69922;45.656;25.586;2023-07-31T01:50:54;94737.61;;;17.86;75.81
80568;BME280;69922;45.656;25.586;2023-07-31T01:52:01;94739.08;;;17.84;75.95
80568;BME280;69922;45.656;25.586;2023-07-31T01:53:07;94737.96;;;17.82;75.66
80568;BME280;69922;45.656;25.586;2023-07-31T01:54:13;94744.35;;;17.81;75.68
80568;BME280;69922;45.656;25.586;2023-07-31T01:55:19;94748.47;;;17.82;75.84
80568;BME280;69922;45.656;25.586;2023-07-31T01:56:26;94752.59;;;17.84;75.91
80568;BME280;69922;45.656;25.586;2023-07-31T01:57:33;94753.30;;;17.86;75.93
80568;BME280;69922;45.656;25.586;2023-07-31T01:58:39;94759.48;;;17.86;75.99
80568;BME280;69922;45.656;25.586;2023-07-31T01:59:47;94761.14;;;17.87;75.91
80568;BME280;69922;45.656;25.586;2023-07-31T02:00:55;94760.77;;;17.88;75.83
80568;BME280;69922;45.656;25.586;2023-07-31T02:02:05;94764.45;;;17.87;75.87
80568;BME280;69922;45.656;25.586;2023-07-31T02:03:11;94763.98;;;17.86;75.85
80568;BME280;69922;45.656;25.586;2023-07-31T02:04:18;94762.94;;;17.85;75.92
80568;BME280;69922;45.656;25.586;2023-07-31T02:05:24;94766.55;;;17.85;75.81
80568;BME280;69922;45.656;25.586;2023-07-31T02:06:30;94765.53;;;17.84;76.36
80568;BME280;69922;45.656;25.586;2023-07-31T02:07:36;94764.23;;;17.81;76.30
80568;BME280;69922;45.656;25.586;2023-07-31T02:08:42;94766.77;;;17.81;76.17
80568;BME280;69922;45.656;25.586;2023-07-31T02:09:48;94766.13;;;17.81;76.20
80568;BME280;69922;45.656;25.586;2023-07-31T02:10:55;94764.86;;;17.80;76.48
80568;BME280;69922;45.656;25.586;2023-07-31T02:12:03;94764.52;;;17.78;76.39
80568;BME280;69922;45.656;25.586;2023-07-31T02:13:09;94765.52;;;17.75;76.35
80568;BME280;69922;45.656;25.586;2023-07-31T02:14:16;94767.17;;;17.74;76.47
80568;BME280;69922;45.656;25.586;2023-07-31T02:15:22;94766.20;;;17.74;76.70
80568;BME280;69922;45.656;25.586;2023-07-31T02:16:28;94768.33;;;17.72;76.61
80568;BME280;69922;45.656;25.586;2023-07-31T02:17:35;94769.19;;;17.72;76.63
80568;BME280;69922;45.656;25.586;2023-07-31T02:18:42;94770.38;;;17.72;76.73
80568;BME280;69922;45.656;25.586;2023-07-31T02:19:48;94767.29;;;17.71;76.47
80568;BME280;69922;45.656;25.586;2023-07-31T02:20:55;94767.52;;;17.72;76.61
80568;BME280;69922;45.656;25.586;2023-07-31T02:22:02;94765.81;;;17.73;76.46
80568;BME280;69922;45.656;25.586;2023-07-31T02:23:08;94767.41;;;17.75;76.64
80568;BME280;69922;45.656;25.586;2023-07-31T02:24:14;94764.44;;;17.77;77.03
80568;BME280;69922;45.656;25.586;2023-07-31T02:25:20;94766.50;;;17.79;76.99
80568;BME280;69922;45.656;25.586;2023-07-31T02:26:27;94766.55;;;17.82;76.92
80568;BME280;69922;45.656;25.586;2023-07-31T02:27:34;94767.45;;;17.85;76.64
80568;BME280;69922;45.656;25.586;2023-07-31T02:28:39;94768.16;;;17.88;76.57
80568;BME280;69922;45.656;25.586;2023-07-31T02:29:49;94766.14;;;17.89;76.57
80568;BME280;69922;45.656;25.586;2023-07-31T02:30:55;94769.41;;;17.94;76.52
80568;BME280;69922;45.656;25.586;2023-07-31T02:32:01;94769.76;;;17.97;76.35
80568;BME280;69922;45.656;25.586;2023-07-31T02:33:08;94774.45;;;18.00;76.28
80568;BME280;69922;45.656;25.586;2023-07-31T02:34:13;94775.58;;;18.02;76.18
80568;BME280;69922;45.656;25.586;2023-07-31T02:35:20;94775.85;;;18.06;76.23
80568;BME280;69922;45.656;25.586;2023-07-31T02:36:27;94774.71;;;18.09;76.14
80568;BME280;69922;45.656;25.586;2023-07-31T02:37:33;94773.02;;;18.14;76.02
80568;BME280;69922;45.656;25.586;2023-07-31T02:38:39;94775.09;;;18.18;76.02
80568;BME280;69922;45.656;25.586;2023-07-31T02:39:45;94775.52;;;18.20;75.89
80568;BME280;69922;45.656;25.586;2023-07-31T02:40:51;94776.48;;;18.21;75.74
80568;BME280;69922;45.656;25.586;2023-07-31T02:41:57;94773.34;;;18.22;75.79
80568;BME280;69922;45.656;25.586;2023-07-31T02:43:03;94778.46;;;18.24;75.68
80568;BME280;69922;45.656;25.586;2023-07-31T02:44:09;94772.95;;;18.25;75.77
80568;BME280;69922;45.656;25.586;2023-07-31T02:45:16;94774.08;;;18.27;75.65
80568;BME280;69922;45.656;25.586;2023-07-31T02:46:22;94775.74;;;18.28;75.64
80568;BME280;69922;45.656;25.586;2023-07-31T02:47:31;94775.37;;;18.30;75.64
80568;BME280;69922;45.656;25.586;2023-07-31T02:48:37;94775.69;;;18.30;75.51
80568;BME280;69922;45.656;25.586;2023-07-31T02:49:44;94779.41;;;18.31;75.58
80568;BME280;69922;45.656;25.586;2023-07-31T02:50:50;94778.05;;;18.30;75.52
80568;BME280;69922;45.656;25.586;2023-07-31T02:51:56;94780.19;;;18.29;75.32
80568;BME280;69922;45.656;25.586;2023-07-31T02:53:03;94778.17;;;18.27;75.44
80568;BME280;69922;45.656;25.586;2023-07-31T02:54:08;94779.20;;;18.26;75.40
80568;BME280;69922;45.656;25.586;2023-07-31T02:55:15;94779.19;;;18.25;75.51
80568;BME280;69922;45.656;25.586;2023-07-31T02:56:21;94779.67;;;18.26;75.41
80568;BME280;69922;45.656;25.586;2023-07-31T02:57:27;94777.28;;;18.23;75.36
80568;BME280;69922;45.656;25.586;2023-07-31T02:58:33;94779.46;;;18.20;75.53
80568;BME280;69922;45.656;25.586;2023-07-31T02:59:39;94780.39;;;18.18;75.48
80568;BME280;69922;45.656;25.586;2023-07-31T03:00:46;94781.43;;;18.19;75.68
80568;BME280;69922;45.656;25.586;2023-07-31T03:01:52;94779.30;;;18.19;75.78
80568;BME280;69922;45.656;25.586;2023-07-31T03:02:59;94782.38;;;18.19;75.67
80568;BME280;69922;45.656;25.586;2023-07-31T03:04:06;94780.56;;;18.19;75.70
80568;BME280;69922;45.656;25.586;2023-07-31T03:05:13;94782.55;;;18.21;75.51
80568;BME280;69922;45.656;25.586;2023-07-31T03:06:20;94785.33;;;18.22;75.49
80568;BME280;69922;45.656;25.586;2023-07-31T03:07:25;94788.25;;;18.23;75.43
80568;BME280;69922;45.656;25.586;2023-07-31T03:08:32;94786.92;;;18.24;75.52
80568;BME280;69922;45.656;25.586;2023-07-31T03:09:38;94788.42;;;18.25;75.45
80568;BME280;69922;45.656;25.586;2023-07-31T03:10:46;94788.91;;;18.26;75.44
80568;BME280;69922;45.656;25.586;2023-07-31T03:11:52;94788.98;;;18.27;75.27
80568;BME280;69922;45.656;25.586;2023-07-31T03:12:58;94784.35;;;18.28;75.08
80568;BME280;69922;45.656;25.586;2023-07-31T03:14:04;94787.52;;;18.29;75.19
80568;BME280;69922;45.656;25.586;2023-07-31T03:15:11;94788.41;;;18.30;74.90
80568;BME280;69922;45.656;25.586;2023-07-31T03:16:17;94783.67;;;18.30;74.99
80568;BME280;69922;45.656;25.586;2023-07-31T03:17:23;94790.77;;;18.29;75.15
80568;BME280;69922;45.656;25.586;2023-07-31T03:18:32;94784.45;;;18.31;75.02
80568;BME280;69922;45.656;25.586;2023-07-31T03:19:39;94784.48;;;18.33;75.00
80568;BME280;69922;45.656;25.586;2023-07-31T03:20:46;94786.39;;;18.34;74.98
80568;BME280;69922;45.656;25.586;2023-07-31T03:21:52;94786.63;;;18.34;74.89
80568;BME280;69922;45.656;25.586;2023-07-31T03:22:58;94789.21;;;18.33;74.92
80568;BME280;69922;45.656;25.586;2023-07-31T03:24:06;94788.34;;;18.32;74.91
80568;BME280;69922;45.656;25.586;2023-07-31T03:25:12;94791.48;;;18.31;74.93
80568;BME280;69922;45.656;25.586;2023-07-31T03:26:24;94791.55;;;18.30;74.81
80568;BME280;69922;45.656;25.586;2023-07-31T03:27:30;94792.50;;;18.29;75.01
80568;BME280;69922;45.656;25.586;2023-07-31T03:28:36;94793.30;;;18.30;74.96
80568;BME280;69922;45.656;25.586;2023-07-31T03:29:43;94792.91;;;18.31;74.82
80568;BME280;69922;45.656;25.586;2023-07-31T03:30:49;94793.46;;;18.31;74.76
80568;BME280;69922;45.656;25.586;2023-07-31T03:31:57;94794.41;;;18.31;74.73
80568;BME280;69922;45.656;25.586;2023-07-31T03:33:03;94798.50;;;18.29;74.58
80568;BME280;69922;45.656;25.586;2023-07-31T03:34:11;94797.75;;;18.26;74.34
80568;BME280;69922;45.656;25.586;2023-07-31T03:35:18;94797.56;;;18.23;74.45
80568;BME280;69922;45.656;25.586;2023-07-31T03:36:24;94799.45;;;18.20;74.40
80568;BME280;69922;45.656;25.586;2023-07-31T03:37:31;94799.75;;;18.18;74.66
80568;BME280;69922;45.656;25.586;2023-07-31T03:38:37;94796.84;;;18.14;74.89
80568;BME280;69922;45.656;25.586;2023-07-31T03:39:43;94800.98;;;18.15;74.87
80568;BME280;69922;45.656;25.586;2023-07-31T03:40:50;94800.40;;;18.14;74.94
80568;BME280;69922;45.656;25.586;2023-07-31T03:41:56;94804.97;;;18.13;75.01
80568;BME280;69922;45.656;25.586;2023-07-31T03:43:03;94802.91;;;18.12;75.04
80568;BME280;69922;45.656;25.586;2023-07-31T03:44:09;94804.10;;;18.13;75.23
80568;BME280;69922;45.656;25.586;2023-07-31T03:45:15;94806.02;;;18.14;75.41
80568;BME280;69922;45.656;25.586;2023-07-31T03:46:24;94804.45;;;18.15;75.70
80568;BME280;69922;45.656;25.586;2023-07-31T03:47:29;94801.34;;;18.13;75.98
80568;BME280;69922;45.656;25.586;2023-07-31T03:48:36;94804.61;;;18.08;75.94
80568;BME280;69922;45.656;25.586;2023-07-31T03:49:42;94802.76;;;18.05;75.87
80568;BME280;69922;45.656;25.586;2023-07-31T03:50:48;94804.88;;;18.04;75.95
80568;BME280;69922;45.656;25.586;2023-07-31T03:51:55;94807.40;;;18.03;76.11
80568;BME280;69922;45.656;25.586;2023-07-31T03:53:02;94803.75;;;18.02;76.20
80568;BME280;69922;45.656;25.586;2023-07-31T03:54:08;94807.77;;;18.02;76.28
80568;BME280;69922;45.656;25.586;2023-07-31T03:55:15;94805.02;;;18.02;76.36
80568;BME280;69922;45.656;25.586;2023-07-31T03:56:21;94803.36;;;18.02;76.62
80568;BME280;69922;45.656;25.586;2023-07-31T03:57:28;94801.86;;;18.02;76.89
80568;BME280;69922;45.656;25.586;2023-07-31T03:58:34;94801.16;;;18.03;76.66
80568;BME280;69922;45.656;25.586;2023-07-31T03:59:41;94801.41;;;18.05;76.67
80568;BME280;69922;45.656;25.586;2023-07-31T04:00:48;94801.75;;;18.06;76.88
80568;BME280;69922;45.656;25.586;2023-07-31T04:01:54;94804.77;;;18.08;76.75
80568;BME280;69922;45.656;25.586;2023-07-31T04:03:00;94806.75;;;18.09;77.06
80568;BME280;69922;45.656;25.586;2023-07-31T04:04:07;94805.61;;;18.07;76.94
80568;BME280;69922;45.656;25.586;2023-07-31T04:05:13;94808.44;;;18.05;76.83
80568;BME280;69922;45.656;25.586;2023-07-31T04:06:20;94803.48;;;18.06;76.93
80568;BME280;69922;45.656;25.586;2023-07-31T04:07:27;94803.19;;;18.08;77.09
80568;BME280;69922;45.656;25.586;2023-07-31T04:08:34;94798.88;;;18.10;77.23
80568;BME280;69922;45.656;25.586;2023-07-31T04:09:40;94799.37;;;18.12;77.14
80568;BME280;69922;45.656;25.586;2023-07-31T04:10:46;94797.32;;;18.13;77.04
80568;BME280;69922;45.656;25.586;2023-07-31T04:11:53;94797.56;;;18.15;76.99
80568;BME280;69922;45.656;25.586;2023-07-31T04:12:59;94801.45;;;18.16;77.08
80568;BME280;69922;45.656;25.586;2023-07-31T04:14:06;94802.34;;;18.18;76.98
80568;BME280;69922;45.656;25.586;2023-07-31T04:15:12;94804.96;;;18.19;76.80
80568;BME280;69922;45.656;25.586;2023-07-31T04:16:18;94804.26;;;18.20;76.69
80568;BME280;69922;45.656;25.586;2023-07-31T04:17:26;94802.68;;;18.20;76.57
80568;BME280;69922;45.656;25.586;2023-07-31T04:18:32;94799.36;;;18.20;76.55
80568;BME280;69922;45.656;25.586;2023-07-31T04:19:39;94799.67;;;18.20;76.46
80568;BME280;69922;45.656;25.586;2023-07-31T04:20:45;94798.98;;;18.21;76.64
80568;BME280;69922;45.656;25.586;2023-07-31T04:21:53;94797.98;;;18.24;76.56
80568;BME280;69922;45.656;25.586;2023-07-31T04:23:00;94796.04;;;18.28;76.59
80568;BME280;69922;45.656;25.586;2023-07-31T04:24:07;94794.33;;;18.32;76.77
80568;BME280;69922;45.656;25.586;2023-07-31T04:25:14;94798.00;;;18.35;76.65
80568;BME280;69922;45.656;25.586;2023-07-31T04:26:20;94797.73;;;18.39;76.61
80568;BME280;69922;45.656;25.586;2023-07-31T04:27:26;94794.86;;;18.43;76.62
80568;BME280;69922;45.656;25.586;2023-07-31T04:28:32;94798.45;;;18.46;76.51
80568;BME280;69922;45.656;25.586;2023-07-31T04:29:39;94801.16;;;18.49;76.57
80568;BME280;69922;45.656;25.586;2023-07-31T04:30:48;94800.55;;;18.52;76.51
80568;BME280;69922;45.656;25.586;2023-07-31T04:31:56;94804.83;;;18.54;76.72
80568;BME280;69922;45.656;25.586;2023-07-31T04:33:01;94799.32;;;18.56;76.51
80568;BME280;69922;45.656;25.586;2023-07-31T04:34:09;94804.11;;;18.61;76.48
80568;BME280;69922;45.656;25.586;2023-07-31T04:35:15;94806.27;;;18.65;76.20
80568;BME280;69922;45.656;25.586;2023-07-31T04:36:21;94807.33;;;18.68;76.29
80568;BME280;69922;45.656;25.586;2023-07-31T04:37:27;94807.27;;;18.72;76.20
80568;BME280;69922;45.656;25.586;2023-07-31T04:38:33;94806.20;;;18.76;76.11
80568;BME280;69922;45.656;25.586;2023-07-31T04:39:39;94807.41;;;18.80;76.01
80568;BME280;69922;45.656;25.586;2023-07-31T04:40:46;94807.45;;;18.84;75.81
80568;BME280;69922;45.656;25.586;2023-07-31T04:41:53;94805.88;;;18.86;75.70
80568;BME280;69922;45.656;25.586;2023-07-31T04:42:59;94805.27;;;18.89;75.59
80568;BME280;69922;45.656;25.586;2023-07-31T04:44:05;94800.78;;;18.90;75.79
80568;BME280;69922;45.656;25.586;2023-07-31T04:45:12;94808.21;;;18.92;75.59
80568;BME280;69922;45.656;25.586;2023-07-31T04:46:18;94808.05;;;18.91;75.57
80568;BME280;69922;45.656;25.586;2023-07-31T04:47:24;94808.38;;;18.92;75.47
80568;BME280;69922;45.656;25.586;2023-07-31T04:48:30;94809.17;;;18.93;75.51
80568;BME280;69922;45.656;25.586;2023-07-31T04:49:37;94807.77;;;18.95;75.46
80568;BME280;69922;45.656;25.586;2023-07-31T04:50:44;94813.45;;;18.96;75.45
80568;BME280;69922;45.656;25.586;2023-07-31T04:51:50;94810.08;;;18.97;75.45
80568;BME280;69922;45.656;25.586;2023-07-31T04:52:56;94811.42;;;18.98;75.54
80568;BME280;69922;45.656;25.586;2023-07-31T04:54:04;94807.23;;;18.99;75.40
80568;BME280;69922;45.656;25.586;2023-07-31T04:55:11;94809.21;;;19.00;75.65
80568;BME280;69922;45.656;25.586;2023-07-31T04:56:18;94810.09;;;19.01;75.59
80568;BME280;69922;45.656;25.586;2023-07-31T04:57:23;94809.94;;;19.02;75.44
80568;BME280;69922;45.656;25.586;2023-07-31T04:58:29;94809.30;;;19.01;75.11
80568;BME280;69922;45.656;25.586;2023-07-31T04:59:35;94807.48;;;18.99;75.10
80568;BME280;69922;45.656;25.586;2023-07-31T05:00:42;94808.48;;;18.96;75.33
80568;BME280;69922;45.656;25.586;2023-07-31T05:01:49;94812.42;;;18.94;75.42
80568;BME280;69922;45.656;25.586;2023-07-31T05:02:55;94813.52;;;18.92;75.56
80568;BME280;69922;45.656;25.586;2023-07-31T05:04:01;94809.85;;;18.88;75.76
80568;BME280;69922;45.656;25.586;2023-07-31T05:05:11;94810.38;;;18.85;75.47
80568;BME280;69922;45.656;25.586;2023-07-31T05:06:18;94809.73;;;18.84;75.59
80568;BME280;69922;45.656;25.586;2023-07-31T05:07:26;94808.92;;;18.82;75.66
80568;BME280;69922;45.656;25.586;2023-07-31T05:08:32;94808.05;;;18.83;75.70
80568;BME280;69922;45.656;25.586;2023-07-31T05:09:39;94806.10;;;18.83;75.65
80568;BME280;69922;45.656;25.586;2023-07-31T05:10:45;94805.93;;;18.83;75.66
80568;BME280;69922;45.656;25.586;2023-07-31T05:11:51;94808.79;;;18.83;75.64
80568;BME280;69922;45.656;25.586;2023-07-31T05:12:59;94806.55;;;18.82;75.60
80568;BME280;69922;45.656;25.586;2023-07-31T05:14:05;94811.29;;;18.80;75.60
80568;BME280;69922;45.656;25.586;2023-07-31T05:15:12;94807.48;;;18.79;75.53
80568;BME280;69922;45.656;25.586;2023-07-31T05:16:20;94806.06;;;18.78;75.59
80568;BME280;69922;45.656;25.586;2023-07-31T05:17:26;94803.73;;;18.75;75.81
80568;BME280;69922;45.656;25.586;2023-07-31T05:18:32;94809.58;;;18.73;75.85
80568;BME280;69922;45.656;25.586;2023-07-31T05:19:38;94811.01;;;18.73;76.04
80568;BME280;69922;45.656;25.586;2023-07-31T05:20:44;94807.98;;;18.72;76.11
80568;BME280;69922;45.656;25.586;2023-07-31T05:21:51;94809.23;;;18.72;76.35
80568;BME280;69922;45.656;25.586;2023-07-31T05:22:58;94814.70;;;18.70;76.39
80568;BME280;69922;45.656;25.586;2023-07-31T05:24:06;94813.87;;;18.67;76.55
80568;BME280;69922;45.656;25.586;2023-07-31T05:25:12;94814.48;;;18.65;76.67
80568;BME280;69922;45.656;25.586;2023-07-31T05:26:18;94819.60;;;18.63;77.07
80568;BME280;69922;45.656;25.586;2023-07-31T05:27:25;94814.92;;;18.59;77.20
80568;BME280;69922;45.656;25.586;2023-07-31T05:28:33;94816.70;;;18.57;77.29
80568;BME280;69922;45.656;25.586;2023-07-31T05:29:39;94816.76;;;18.54;77.29
80568;BME280;69922;45.656;25.586;2023-07-31T05:30:46;94814.59;;;18.49;77.62
80568;BME280;69922;45.656;25.586;2023-07-31T05:31:52;94820.40;;;18.46;77.80
80568;BME280;69922;45.656;25.586;2023-07-31T05:32:58;94822.19;;;18.42;77.94
80568;BME280;69922;45.656;25.586;2023-07-31T05:34:06;94823.41;;;18.39;78.43
80568;BME280;69922;45.656;25.586;2023-07-31T05:35:11;94827.23;;;18.36;78.61
80568;BME280;69922;45.656;25.586;2023-07-31T05:36:18;94826.56;;;18.33;79.48
80568;BME280;69922;45.656;25.586;2023-07-31T05:37:26;94823.34;;;18.26;79.23
80568;BME280;69922;45.656;25.586;2023-07-31T05:38:32;94821.93;;;18.19;78.97
80568;BME280;69922;45.656;25.586;2023-07-31T05:39:38;94822.75;;;18.15;79.14
80568;BME280;69922;45.656;25.586;2023-07-31T05:40:45;94824.30;;;18.11;79.09
80568;BME280;69922;45.656;25.586;2023-07-31T05:41:53;94822.45;;;18.08;79.24
80568;BME280;69922;45.656;25.586;2023-07-31T05:42:59;94822.41;;;18.05;79.20
80568;BME280;69922;45.656;25.586;2023-07-31T05:44:05;94820.34;;;18.02;79.28
80568;BME280;69922;45.656;25.586;2023-07-31T05:45:12;94823.08;;;18.00;79.42
80568;BME280;69922;45.656;25.586;2023-07-31T05:46:20;94826.29;;;17.98;79.38
80568;BME280;69922;45.656;25.586;2023-07-31T05:47:27;94827.54;;;17.97;79.47
80568;BME280;69922;45.656;25.586;2023-07-31T05:48:33;94825.11;;;17.98;79.42
80568;BME280;69922;45.656;25.586;2023-07-31T05:49:40;94827.27;;;18.01;79.33
80568;BME280;69922;45.656;25.586;2023-07-31T05:50:46;94824.48;;;18.06;79.55
80568;BME280;69922;45.656;25.586;2023-07-31T05:51:52;94825.34;;;18.12;79.45